Canyonlands, Utah
Current Conditions -  °F | °C
As of 12:53 PM on Friday 24 Oct 2014 (Local Time) from KCNY Reporting Station
Clear Clear  
Wind Chill: 71°   Ceiling: Unl
Heat Index: 71°   Visibility: 10mi
Dew Point: 33°   Wind: 7mph
Humidity: 25%   Direction: 110°ESE
Pressure: 30.24"   Gusts: NA
Location:  38.6903°N, 109.256°W
Report Text: KCNY 241853Z AUTO 11006KT 10SM CLR 22/01 A3024 RMK AO2 SLP208 T02170006
Loading
Personal Weather Stations






























Interactive Weather Map
Tropical Storm Tracking
New forecast layout! Learn more

10-Day Weather Forecast

Advertisements
Track Severe Weather on mobile